sensor_id;sensor_type;location;lat;lon;timestamp;P1;durP1;ratioP1;P2;durP2;ratioP2
57313;SDS011;53202;50.976;18.216;2023-02-28T00:03:06;34.00;;;17.80;;
57313;SDS011;53202;50.976;18.216;2023-02-28T00:20:11;38.20;;;17.70;;
57313;SDS011;53202;50.976;18.216;2023-02-28T00:29:58;29.30;;;19.10;;
57313;SDS011;53202;50.976;18.216;2023-02-28T00:39:42;41.50;;;23.30;;
57313;SDS011;53202;50.976;18.216;2023-02-28T00:49:26;42.90;;;18.60;;
57313;SDS011;53202;50.976;18.216;2023-02-28T00:59:11;55.80;;;22.80;;
57313;SDS011;53202;50.976;18.216;2023-02-28T01:08:57;45.00;;;18.50;;
57313;SDS011;53202;50.976;18.216;2023-02-28T01:18:41;22.90;;;13.90;;
57313;SDS011;53202;50.976;18.216;2023-02-28T01:28:30;15.80;;;12.10;;
57313;SDS011;53202;50.976;18.216;2023-02-28T01:38:13;24.80;;;14.70;;
57313;SDS011;53202;50.976;18.216;2023-02-28T01:48:08;21.30;;;12.20;;
57313;SDS011;53202;50.976;18.216;2023-02-28T01:57:55;19.60;;;15.90;;
57313;SDS011;53202;50.976;18.216;2023-02-28T02:07:44;26.60;;;11.90;;
57313;SDS011;53202;50.976;18.216;2023-02-28T02:17:56;22.00;;;13.20;;
57313;SDS011;53202;50.976;18.216;2023-02-28T02:49:26;25.70;;;15.00;;
57313;SDS011;53202;50.976;18.216;2023-02-28T02:59:15;22.70;;;10.70;;
57313;SDS011;53202;50.976;18.216;2023-02-28T03:09:08;5.30;;;4.80;;
57313;SDS011;53202;50.976;18.216;2023-02-28T03:19:25;3.50;;;3.20;;
57313;SDS011;53202;50.976;18.216;2023-02-28T03:29:51;14.50;;;9.90;;
57313;SDS011;53202;50.976;18.216;2023-02-28T03:39:58;11.80;;;5.00;;
57313;SDS011;53202;50.976;18.216;2023-02-28T04:00:14;50.60;;;22.90;;
57313;SDS011;53202;50.976;18.216;2023-02-28T04:10:03;17.70;;;7.70;;
57313;SDS011;53202;50.976;18.216;2023-02-28T04:14:55;27.20;;;12.90;;
57313;SDS011;53202;50.976;18.216;2023-02-28T04:24:40;22.60;;;8.20;;
57313;SDS011;53202;50.976;18.216;2023-02-28T04:34:25;57.30;;;12.40;;
57313;SDS011;53202;50.976;18.216;2023-02-28T04:44:12;12.30;;;6.00;;
57313;SDS011;53202;50.976;18.216;2023-02-28T04:53:56;28.10;;;13.70;;
57313;SDS011;53202;50.976;18.216;2023-02-28T05:03:42;46.80;;;10.70;;
57313;SDS011;53202;50.976;18.216;2023-02-28T05:13:27;21.10;;;7.40;;
57313;SDS011;53202;50.976;18.216;2023-02-28T05:23:12;43.90;;;16.60;;
57313;SDS011;53202;50.976;18.216;2023-02-28T05:32:57;14.20;;;8.10;;
57313;SDS011;53202;50.976;18.216;2023-02-28T05:42:41;56.80;;;14.20;;
57313;SDS011;53202;50.976;18.216;2023-02-28T05:52:27;98.60;;;18.80;;
57313;SDS011;53202;50.976;18.216;2023-02-28T06:02:13;31.00;;;8.10;;
57313;SDS011;53202;50.976;18.216;2023-02-28T06:11:59;53.80;;;21.40;;
57313;SDS011;53202;50.976;18.216;2023-02-28T06:21:49;53.90;;;16.00;;
57313;SDS011;53202;50.976;18.216;2023-02-28T06:31:36;49.20;;;17.10;;
57313;SDS011;53202;50.976;18.216;2023-02-28T06:41:24;29.90;;;12.60;;
57313;SDS011;53202;50.976;18.216;2023-02-28T06:51:12;34.10;;;16.10;;
57313;SDS011;53202;50.976;18.216;2023-02-28T07:00:58;53.10;;;33.10;;
57313;SDS011;53202;50.976;18.216;2023-02-28T07:10:42;11.60;;;7.20;;
57313;SDS011;53202;50.976;18.216;2023-02-28T07:20:27;50.60;;;27.90;;
57313;SDS011;53202;50.976;18.216;2023-02-28T07:30:14;43.90;;;28.90;;
57313;SDS011;53202;50.976;18.216;2023-02-28T07:40:03;39.80;;;29.50;;
57313;SDS011;53202;50.976;18.216;2023-02-28T07:49:50;51.20;;;27.10;;
57313;SDS011;53202;50.976;18.216;2023-02-28T07:59:33;13.00;;;9.40;;
57313;SDS011;53202;50.976;18.216;2023-02-28T08:09:18;18.20;;;9.80;;
57313;SDS011;53202;50.976;18.216;2023-02-28T08:19:04;5.80;;;5.30;;
57313;SDS011;53202;50.976;18.216;2023-02-28T08:28:48;13.00;;;7.60;;
57313;SDS011;53202;50.976;18.216;2023-02-28T08:38:33;10.00;;;7.10;;
57313;SDS011;53202;50.976;18.216;2023-02-28T08:41:01;15.90;;;9.60;;
57313;SDS011;53202;50.976;18.216;2023-02-28T09:00:50;11.30;;;9.00;;
57313;SDS011;53202;50.976;18.216;2023-02-28T09:10:56;14.60;;;5.40;;
57313;SDS011;53202;50.976;18.216;2023-02-28T09:20:44;14.50;;;9.10;;
57313;SDS011;53202;50.976;18.216;2023-02-28T09:30:29;13.60;;;11.10;;
57313;SDS011;53202;50.976;18.216;2023-02-28T09:32:55;15.40;;;9.50;;
57313;SDS011;53202;50.976;18.216;2023-02-28T09:42:44;11.20;;;8.60;;
57313;SDS011;53202;50.976;18.216;2023-02-28T09:52:52;47.70;;;9.20;;
57313;SDS011;53202;50.976;18.216;2023-02-28T10:03:02;19.60;;;11.40;;
57313;SDS011;53202;50.976;18.216;2023-02-28T10:13:15;12.80;;;8.30;;
57313;SDS011;53202;50.976;18.216;2023-02-28T10:23:14;11.50;;;8.70;;
57313;SDS011;53202;50.976;18.216;2023-02-28T10:33:12;3.20;;;1.50;;
57313;SDS011;53202;50.976;18.216;2023-02-28T10:43:18;14.50;;;9.40;;
57313;SDS011;53202;50.976;18.216;2023-02-28T10:53:32;18.70;;;12.50;;
57313;SDS011;53202;50.976;18.216;2023-02-28T11:03:23;13.30;;;8.90;;
57313;SDS011;53202;50.976;18.216;2023-02-28T11:13:16;12.90;;;8.40;;
57313;SDS011;53202;50.976;18.216;2023-02-28T11:23:19;11.30;;;10.20;;
57313;SDS011;53202;50.976;18.216;2023-02-28T11:33:48;17.00;;;12.10;;
57313;SDS011;53202;50.976;18.216;2023-02-28T11:43:46;13.70;;;9.60;;
57313;SDS011;53202;50.976;18.216;2023-02-28T12:04:53;10.10;;;7.40;;
57313;SDS011;53202;50.976;18.216;2023-02-28T12:36:05;74.10;;;11.60;;
57313;SDS011;53202;50.976;18.216;2023-02-28T12:46:12;17.90;;;12.50;;
57313;SDS011;53202;50.976;18.216;2023-02-28T13:07:06;10.10;;;5.70;;
57313;SDS011;53202;50.976;18.216;2023-02-28T13:24:40;16.80;;;11.40;;
57313;SDS011;53202;50.976;18.216;2023-02-28T13:34:49;9.30;;;8.30;;
57313;SDS011;53202;50.976;18.216;2023-02-28T13:45:21;15.30;;;12.40;;
57313;SDS011;53202;50.976;18.216;2023-02-28T13:55:21;11.40;;;10.30;;
57313;SDS011;53202;50.976;18.216;2023-02-28T14:16:11;16.60;;;10.60;;
57313;SDS011;53202;50.976;18.216;2023-02-28T14:26:13;15.80;;;13.80;;
57313;SDS011;53202;50.976;18.216;2023-02-28T14:36:42;14.40;;;12.60;;
57313;SDS011;53202;50.976;18.216;2023-02-28T14:46:43;16.80;;;11.20;;
57313;SDS011;53202;50.976;18.216;2023-02-28T14:56:34;23.70;;;17.10;;
57313;SDS011;53202;50.976;18.216;2023-02-28T15:06:24;18.90;;;13.90;;
57313;SDS011;53202;50.976;18.216;2023-02-28T15:16:30;21.60;;;13.40;;
57313;SDS011;53202;50.976;18.216;2023-02-28T15:26:21;28.40;;;18.80;;
57313;SDS011;53202;50.976;18.216;2023-02-28T15:36:20;37.60;;;23.60;;
57313;SDS011;53202;50.976;18.216;2023-02-28T15:46:40;43.80;;;19.60;;
57313;SDS011;53202;50.976;18.216;2023-02-28T15:56:35;25.40;;;17.90;;
57313;SDS011;53202;50.976;18.216;2023-02-28T16:06:32;32.10;;;18.10;;
57313;SDS011;53202;50.976;18.216;2023-02-28T16:16:17;49.00;;;22.90;;
57313;SDS011;53202;50.976;18.216;2023-02-28T16:26:03;56.70;;;25.20;;
57313;SDS011;53202;50.976;18.216;2023-02-28T16:35:51;69.00;;;31.10;;
57313;SDS011;53202;50.976;18.216;2023-02-28T16:45:36;87.80;;;28.00;;
57313;SDS011;53202;50.976;18.216;2023-02-28T16:55:21;16.50;;;11.80;;
57313;SDS011;53202;50.976;18.216;2023-02-28T17:05:08;65.10;;;26.20;;
57313;SDS011;53202;50.976;18.216;2023-02-28T17:15:00;62.80;;;34.50;;
57313;SDS011;53202;50.976;18.216;2023-02-28T17:24:44;79.40;;;40.90;;
57313;SDS011;53202;50.976;18.216;2023-02-28T17:34:29;140.10;;;66.40;;
57313;SDS011;53202;50.976;18.216;2023-02-28T17:44:17;190.20;;;64.90;;
57313;SDS011;53202;50.976;18.216;2023-02-28T17:54:02;206.70;;;87.80;;
57313;SDS011;53202;50.976;18.216;2023-02-28T18:03:48;102.80;;;29.60;;
57313;SDS011;53202;50.976;18.216;2023-02-28T18:13:43;99.40;;;49.40;;
57313;SDS011;53202;50.976;18.216;2023-02-28T18:23:30;56.40;;;38.00;;
57313;SDS011;53202;50.976;18.216;2023-02-28T18:33:17;80.20;;;40.60;;
57313;SDS011;53202;50.976;18.216;2023-02-28T18:43:04;82.60;;;41.50;;
57313;SDS011;53202;50.976;18.216;2023-02-28T18:52:48;110.10;;;64.10;;
57313;SDS011;53202;50.976;18.216;2023-02-28T19:09:55;141.30;;;63.90;;
57313;SDS011;53202;50.976;18.216;2023-02-28T19:19:40;181.20;;;77.60;;
57313;SDS011;53202;50.976;18.216;2023-02-28T19:29:23;138.10;;;67.30;;
57313;SDS011;53202;50.976;18.216;2023-02-28T19:39:09;152.00;;;67.00;;
57313;SDS011;53202;50.976;18.216;2023-02-28T19:48:53;129.90;;;60.30;;
57313;SDS011;53202;50.976;18.216;2023-02-28T19:58:37;105.40;;;49.90;;
57313;SDS011;53202;50.976;18.216;2023-02-28T20:08:31;110.00;;;59.70;;
57313;SDS011;53202;50.976;18.216;2023-02-28T20:18:23;117.30;;;49.80;;
57313;SDS011;53202;50.976;18.216;2023-02-28T20:28:08;69.40;;;45.20;;
57313;SDS011;53202;50.976;18.216;2023-02-28T20:37:51;59.40;;;25.50;;
57313;SDS011;53202;50.976;18.216;2023-02-28T20:47:35;130.80;;;67.60;;
57313;SDS011;53202;50.976;18.216;2023-02-28T20:57:19;112.50;;;60.10;;
57313;SDS011;53202;50.976;18.216;2023-02-28T21:07:05;93.00;;;29.70;;
57313;SDS011;53202;50.976;18.216;2023-02-28T21:16:50;151.90;;;63.60;;
57313;SDS011;53202;50.976;18.216;2023-02-28T21:26:37;116.20;;;31.00;;
57313;SDS011;53202;50.976;18.216;2023-02-28T21:36:23;44.00;;;20.60;;
57313;SDS011;53202;50.976;18.216;2023-02-28T21:46:20;133.10;;;63.00;;
57313;SDS011;53202;50.976;18.216;2023-02-28T21:56:10;144.00;;;61.80;;
57313;SDS011;53202;50.976;18.216;2023-02-28T22:05:57;158.00;;;73.80;;
57313;SDS011;53202;50.976;18.216;2023-02-28T22:15:40;171.70;;;39.90;;
57313;SDS011;53202;50.976;18.216;2023-02-28T22:25:24;162.20;;;73.40;;
57313;SDS011;53202;50.976;18.216;2023-02-28T22:35:08;78.70;;;39.80;;
57313;SDS011;53202;50.976;18.216;2023-02-28T22:44:53;70.80;;;34.10;;
57313;SDS011;53202;50.976;18.216;2023-02-28T22:54:40;70.50;;;28.20;;
57313;SDS011;53202;50.976;18.216;2023-02-28T23:04:24;144.10;;;35.20;;
57313;SDS011;53202;50.976;18.216;2023-02-28T23:14:10;113.90;;;40.30;;
57313;SDS011;53202;50.976;18.216;2023-02-28T23:24:00;55.00;;;22.70;;
57313;SDS011;53202;50.976;18.216;2023-02-28T23:33:48;55.30;;;21.40;;
57313;SDS011;53202;50.976;18.216;2023-02-28T23:43:33;49.40;;;27.70;;
57313;SDS011;53202;50.976;18.216;2023-02-28T23:53:18;62.40;;;33.40;;
